createdAt,value
2023-03-06T00:01:13.793Z,99939.16
2023-03-06T00:03:40.542Z,99938.03
2023-03-06T00:06:07.330Z,99942.56
2023-03-06T00:08:34.203Z,99933.81
2023-03-06T00:11:01.021Z,99944.84
2023-03-06T00:13:29.904Z,99940.19
2023-03-06T00:15:56.746Z,99941.94
2023-03-06T00:18:23.518Z,99938.22
2023-03-06T00:20:50.259Z,99934.03
2023-03-06T00:23:17.021Z,99929.06
2023-03-06T00:25:43.864Z,99925.09
2023-03-06T00:28:12.081Z,99918.78
2023-03-06T00:30:38.947Z,99912.34
2023-03-06T00:33:05.689Z,99917.13
2023-03-06T00:35:32.445Z,99921.59
2023-03-06T00:37:59.758Z,99913.75
2023-03-06T00:40:26.539Z,99900.63
2023-03-06T00:42:53.299Z,99900.72
2023-03-06T00:45:20.066Z,99893.66
2023-03-06T00:47:46.814Z,99885.28
2023-03-06T00:50:13.608Z,99893.00
2023-03-06T00:52:41.856Z,99877.09
2023-03-06T00:55:08.607Z,99879.59
2023-03-06T00:57:35.366Z,99876.31
2023-03-06T01:00:02.134Z,99879.41
2023-03-06T01:02:29.051Z,99872.56
2023-03-06T01:04:55.832Z,99873.34
2023-03-06T01:07:22.590Z,99871.09
2023-03-06T01:09:49.318Z,99870.03
2023-03-06T01:12:16.108Z,99872.53
2023-03-06T01:14:42.890Z,99867.53
2023-03-06T01:17:09.647Z,99866.91
2023-03-06T01:19:36.476Z,99859.56
2023-03-06T01:22:03.226Z,99861.25
2023-03-06T01:24:30.012Z,99853.78
2023-03-06T01:26:56.778Z,99859.16
2023-03-06T01:29:23.605Z,99853.97
2023-03-06T01:31:50.354Z,99851.13
2023-03-06T01:34:17.105Z,99843.63
2023-03-06T01:36:43.849Z,99844.72
2023-03-06T01:39:10.621Z,99840.34
2023-03-06T01:41:37.343Z,99839.97
2023-03-06T01:44:04.138Z,99835.88
2023-03-06T01:46:30.917Z,99838.25
2023-03-06T01:48:57.675Z,99842.28
2023-03-06T01:51:24.483Z,99842.41
2023-03-06T01:53:51.226Z,99840.41
2023-03-06T01:56:17.994Z,99829.00
2023-03-06T01:58:44.761Z,99832.69
2023-03-06T02:01:11.526Z,99840.88
2023-03-06T02:03:38.304Z,99831.03
2023-03-06T02:06:05.063Z,99836.03
2023-03-06T02:08:31.787Z,99832.34
2023-03-06T02:10:58.646Z,99832.22
2023-03-06T02:13:25.396Z,99830.22
2023-03-06T02:15:52.128Z,99822.91
2023-03-06T02:18:18.928Z,99827.75
2023-03-06T02:20:45.815Z,99823.38
2023-03-06T02:23:12.594Z,99830.06
2023-03-06T02:25:39.448Z,99830.94
2023-03-06T02:28:06.223Z,99826.78
2023-03-06T02:30:33.132Z,99826.94
2023-03-06T02:33:00.016Z,99824.16
2023-03-06T02:35:26.831Z,99822.31
2023-03-06T02:37:53.620Z,99825.28
2023-03-06T02:40:20.356Z,99815.03
2023-03-06T02:42:47.179Z,99813.00
2023-03-06T02:45:13.918Z,99806.63
2023-03-06T02:47:40.659Z,99805.47
2023-03-06T02:50:07.431Z,99806.63
2023-03-06T02:52:34.350Z,99806.69
2023-03-06T02:55:01.124Z,99805.88
2023-03-06T02:57:27.872Z,99801.47
2023-03-06T02:59:54.622Z,99811.19
2023-03-06T03:02:21.406Z,99804.13
2023-03-06T03:04:48.274Z,99798.97
2023-03-06T03:07:15.060Z,99797.53
2023-03-06T03:09:41.800Z,99808.47
2023-03-06T03:12:08.550Z,99800.47
2023-03-06T03:14:35.369Z,99804.41
2023-03-06T03:17:02.159Z,99800.41
2023-03-06T03:19:29.013Z,99796.56
2023-03-06T03:21:55.751Z,99794.84
2023-03-06T03:24:22.577Z,99796.97
2023-03-06T03:26:49.330Z,99781.25
2023-03-06T03:29:16.072Z,99783.44
2023-03-06T03:31:42.818Z,99788.78
2023-03-06T03:34:09.581Z,99787.44
2023-03-06T03:36:36.402Z,99778.19
2023-03-06T03:39:04.109Z,99781.59
2023-03-06T03:41:30.994Z,99780.34
2023-03-06T03:43:57.738Z,99776.53
2023-03-06T03:46:24.541Z,99777.88
2023-03-06T03:48:51.428Z,99779.53
2023-03-06T03:51:18.238Z,99773.63
2023-03-06T03:53:45.109Z,99777.22
2023-03-06T03:56:11.855Z,99767.63
2023-03-06T03:58:38.589Z,99765.97
2023-03-06T04:01:05.339Z,99770.22
2023-03-06T04:03:32.577Z,99762.41
2023-03-06T04:05:59.304Z,99760.88
2023-03-06T04:08:26.040Z,99761.59
2023-03-06T04:10:52.799Z,99764.59
2023-03-06T04:13:20.889Z,99760.97
2023-03-06T04:15:47.620Z,99762.31
2023-03-06T04:18:16.201Z,99750.88
2023-03-06T04:20:43.017Z,99751.34
2023-03-06T04:23:09.758Z,99746.97
2023-03-06T04:25:36.533Z,99742.53
2023-03-06T04:28:03.320Z,99739.63
2023-03-06T04:30:30.052Z,99746.72
2023-03-06T04:32:56.801Z,99740.53
2023-03-06T04:35:23.548Z,99739.81
2023-03-06T04:37:50.300Z,99739.66
2023-03-06T04:40:17.067Z,99739.81
2023-03-06T04:42:43.850Z,99737.56
2023-03-06T04:45:10.599Z,99733.41
2023-03-06T04:47:37.355Z,99738.75
2023-03-06T04:50:04.332Z,99740.50
2023-03-06T04:52:31.378Z,99739.97
2023-03-06T04:54:58.187Z,99735.75
2023-03-06T04:57:24.936Z,99742.41
2023-03-06T04:59:51.668Z,99738.25
2023-03-06T05:02:18.603Z,99739.38
2023-03-06T05:04:45.427Z,99740.34
2023-03-06T05:07:12.563Z,99735.50
2023-03-06T05:09:39.319Z,99732.50
2023-03-06T05:12:06.047Z,99728.91
2023-03-06T05:14:32.791Z,99730.47
2023-03-06T05:16:59.548Z,99731.72
2023-03-06T05:19:26.289Z,99721.72
2023-03-06T05:21:53.069Z,99716.97
2023-03-06T05:24:19.830Z,99719.28
2023-03-06T05:26:46.606Z,99716.19
2023-03-06T05:29:13.360Z,99714.09
2023-03-06T05:31:40.229Z,99710.72
2023-03-06T05:34:07.014Z,99710.56
2023-03-06T05:36:33.768Z,99711.44
2023-03-06T05:39:00.605Z,99714.66
2023-03-06T05:41:27.342Z,99711.75
2023-03-06T05:43:54.208Z,99709.53
2023-03-06T05:46:21.050Z,99717.28
2023-03-06T05:48:49.184Z,99712.47
2023-03-06T05:51:15.926Z,99717.44
2023-03-06T05:53:42.719Z,99710.44
2023-03-06T05:56:09.753Z,99706.63
2023-03-06T05:58:36.483Z,99705.09
2023-03-06T06:01:03.227Z,99709.06
2023-03-06T06:03:30.019Z,99701.25
2023-03-06T06:05:56.767Z,99705.44
2023-03-06T06:08:23.531Z,99705.44
2023-03-06T06:10:53.178Z,99706.09
2023-03-06T06:13:20.179Z,99710.59
2023-03-06T06:15:46.982Z,99709.56
2023-03-06T06:18:13.747Z,99705.50
2023-03-06T06:20:40.552Z,99716.13
2023-03-06T06:23:07.325Z,99707.38
2023-03-06T06:25:34.083Z,99706.47
2023-03-06T06:28:00.814Z,99703.09
2023-03-06T06:30:27.564Z,99700.47
2023-03-06T06:32:54.323Z,99703.63
2023-03-06T06:35:21.176Z,99701.72
2023-03-06T06:37:48.032Z,99701.94
2023-03-06T06:40:14.865Z,99699.78
2023-03-06T06:42:41.660Z,99703.44
2023-03-06T06:45:08.428Z,99705.78
2023-03-06T06:47:38.103Z,99702.78
2023-03-06T06:50:04.854Z,99697.97
2023-03-06T06:52:31.600Z,99702.25
2023-03-06T06:54:58.365Z,99704.44
2023-03-06T06:57:25.092Z,99707.41
2023-03-06T06:59:53.791Z,99704.09
2023-03-06T07:02:20.901Z,99696.59
2023-03-06T07:05:02.555Z,99704.25
2023-03-06T07:07:30.736Z,99700.19
2023-03-06T07:09:57.585Z,99702.25
2023-03-06T07:12:24.330Z,99704.25
2023-03-06T07:14:51.073Z,99702.66
2023-03-06T07:17:17.831Z,99695.38
2023-03-06T07:19:44.635Z,99696.88
2023-03-06T07:22:11.793Z,99700.03
2023-03-06T07:24:38.577Z,99701.16
2023-03-06T07:27:05.369Z,99699.06
2023-03-06T07:29:33.916Z,99704.19
2023-03-06T07:32:00.708Z,99698.72
2023-03-06T07:34:27.489Z,99698.78
2023-03-06T07:36:54.234Z,99694.69
2023-03-06T07:39:20.970Z,99699.59
2023-03-06T07:41:47.747Z,99701.94
2023-03-06T07:44:14.579Z,99704.13
2023-03-06T07:46:41.531Z,99707.94
2023-03-06T07:49:08.308Z,99705.44
2023-03-06T07:51:35.087Z,99705.78
2023-03-06T07:54:01.854Z,99705.09
2023-03-06T07:56:28.632Z,99707.25
2023-03-06T07:58:56.773Z,99701.59
2023-03-06T08:01:24.112Z,99710.94
2023-03-06T08:03:50.935Z,99700.25
2023-03-06T08:06:17.752Z,99710.41
2023-03-06T08:08:44.559Z,99695.09
2023-03-06T08:11:11.309Z,99695.38
2023-03-06T08:13:38.280Z,99700.84
2023-03-06T08:16:05.085Z,99692.00
2023-03-06T08:18:31.869Z,99691.69
2023-03-06T08:20:58.659Z,99693.75
2023-03-06T08:23:25.382Z,99697.19
2023-03-06T08:25:52.117Z,99705.47
2023-03-06T08:28:18.886Z,99706.59
2023-03-06T08:30:45.658Z,99703.78
2023-03-06T08:33:12.570Z,99702.13
2023-03-06T08:35:39.384Z,99701.72
2023-03-06T08:38:06.134Z,99701.47
2023-03-06T08:40:32.952Z,99708.09
2023-03-06T08:42:59.734Z,99713.78
2023-03-06T08:45:26.529Z,99713.84
2023-03-06T08:47:53.286Z,99709.25
2023-03-06T08:50:20.057Z,99714.81
2023-03-06T08:52:46.797Z,99712.69
2023-03-06T08:55:15.160Z,99716.44
2023-03-06T08:57:41.997Z,99711.41
2023-03-06T09:00:09.017Z,99710.50
2023-03-06T09:02:35.843Z,99718.25
2023-03-06T09:05:02.707Z,99708.19
2023-03-06T09:07:29.461Z,99707.88
2023-03-06T09:09:56.601Z,99711.28
2023-03-06T09:12:23.352Z,99715.06
2023-03-06T09:14:50.102Z,99705.59
2023-03-06T09:17:16.863Z,99712.69
2023-03-06T09:19:43.687Z,99710.66
2023-03-06T09:22:10.415Z,99708.94
2023-03-06T09:24:37.176Z,99711.69
2023-03-06T09:27:04.034Z,99714.56
2023-03-06T09:29:30.832Z,99719.25
2023-03-06T09:31:57.570Z,99714.94
2023-03-06T09:34:24.436Z,99719.44
2023-03-06T09:36:56.771Z,99723.34
2023-03-06T09:39:24.298Z,99722.75
2023-03-06T09:41:51.111Z,99716.59
2023-03-06T09:44:17.901Z,99715.41
2023-03-06T09:46:44.675Z,99700.28
2023-03-06T09:49:11.426Z,99712.41
2023-03-06T09:51:38.142Z,99711.41
2023-03-06T09:54:05.130Z,99713.06
2023-03-06T09:56:31.966Z,99714.91
2023-03-06T09:58:58.718Z,99712.69
2023-03-06T10:01:25.445Z,99715.41
2023-03-06T10:03:52.210Z,99713.00
2023-03-06T10:06:18.981Z,99704.31
2023-03-06T10:08:45.721Z,99705.97
2023-03-06T10:11:12.480Z,99709.22
2023-03-06T10:13:39.323Z,99706.31
2023-03-06T10:16:06.146Z,99703.22
2023-03-06T10:18:32.960Z,99703.22
2023-03-06T10:21:13.432Z,99694.06
2023-03-06T10:23:45.402Z,99703.59
2023-03-06T10:26:12.181Z,99702.28
2023-03-06T10:28:38.932Z,99700.03
2023-03-06T10:31:05.765Z,99701.03
2023-03-06T10:33:32.514Z,99698.72
2023-03-06T10:35:59.281Z,99696.94
2023-03-06T10:38:26.089Z,99702.19
2023-03-06T10:40:53.009Z,99696.09
2023-03-06T10:43:19.749Z,99701.16
2023-03-06T10:45:49.266Z,99693.16
2023-03-06T10:48:16.410Z,99694.91
2023-03-06T10:50:43.161Z,99690.25
2023-03-06T10:53:09.908Z,99689.41
2023-03-06T10:55:36.854Z,99691.09
2023-03-06T10:58:03.597Z,99690.41
2023-03-06T11:00:30.387Z,99686.94
2023-03-06T11:02:57.131Z,99685.78
2023-03-06T11:05:23.904Z,99688.69
2023-03-06T11:07:50.659Z,99680.56
2023-03-06T11:10:18.619Z,99683.22
2023-03-06T11:12:45.442Z,99693.38
2023-03-06T11:15:12.627Z,99688.09
2023-03-06T11:17:39.402Z,99687.63
2023-03-06T11:20:06.256Z,99689.63
2023-03-06T11:22:33.019Z,99684.66
2023-03-06T11:24:59.760Z,99681.06
2023-03-06T11:27:26.537Z,99679.16
2023-03-06T11:29:53.294Z,99677.44
2023-03-06T11:32:20.066Z,99685.19
2023-03-06T11:34:48.624Z,99677.78
2023-03-06T11:37:17.118Z,99681.78
2023-03-06T11:39:43.876Z,99672.91
2023-03-06T11:42:10.633Z,99670.34
2023-03-06T11:44:37.402Z,99673.41
2023-03-06T11:47:04.129Z,99670.88
2023-03-06T11:49:30.859Z,99668.06
2023-03-06T11:51:57.617Z,99671.94
2023-03-06T11:54:24.369Z,99670.38
2023-03-06T11:56:51.118Z,99668.66
2023-03-06T11:59:17.892Z,99672.34
2023-03-06T12:01:44.676Z,99661.53
2023-03-06T12:04:11.481Z,99663.63
2023-03-06T12:06:38.237Z,99672.97
2023-03-06T12:09:05.100Z,99671.34
2023-03-06T12:11:33.241Z,99669.66
2023-03-06T12:14:02.314Z,99663.34
2023-03-06T12:16:30.841Z,99672.91
2023-03-06T12:18:57.596Z,99673.41
2023-03-06T12:21:24.391Z,99681.38
2023-03-06T12:23:51.119Z,99678.75
2023-03-06T12:26:17.852Z,99690.59
2023-03-06T12:28:46.334Z,99687.59
2023-03-06T12:31:13.267Z,99701.25
2023-03-06T12:33:40.743Z,99693.50
2023-03-06T12:36:07.499Z,99686.41
2023-03-06T12:38:34.234Z,99690.75
2023-03-06T12:41:00.994Z,99694.09
2023-03-06T12:43:27.764Z,99685.34
2023-03-06T12:45:54.539Z,99688.84
2023-03-06T12:48:21.355Z,99681.97
2023-03-06T12:50:48.121Z,99685.66
2023-03-06T12:53:14.878Z,99684.91
2023-03-06T12:55:41.655Z,99683.97
2023-03-06T12:58:08.473Z,99688.94
2023-03-06T13:00:35.272Z,99685.16
2023-03-06T13:03:02.010Z,99679.16
2023-03-06T13:05:28.900Z,99687.78
2023-03-06T13:07:55.682Z,99681.63
2023-03-06T13:10:23.173Z,99684.84
2023-03-06T13:12:49.946Z,99691.59
2023-03-06T13:15:16.704Z,99694.31
2023-03-06T13:17:43.450Z,99692.25
2023-03-06T13:20:11.043Z,99689.22
2023-03-06T13:22:37.787Z,99702.91
2023-03-06T13:25:08.481Z,99702.91
2023-03-06T13:27:35.304Z,99691.09
2023-03-06T13:30:02.093Z,99685.81
2023-03-06T13:32:29.161Z,99690.16
2023-03-06T13:34:55.970Z,99687.97
2023-03-06T13:37:23.339Z,99692.19
2023-03-06T13:39:50.109Z,99694.19
2023-03-06T13:42:16.867Z,99694.16
2023-03-06T13:44:43.665Z,99694.44
2023-03-06T13:47:10.537Z,99693.66
2023-03-06T13:49:37.288Z,99695.97
2023-03-06T13:52:04.069Z,99695.22
2023-03-06T13:54:31.054Z,99689.03
2023-03-06T13:56:57.859Z,99693.78
2023-03-06T13:59:24.620Z,99696.94
2023-03-06T14:01:51.421Z,99687.94
2023-03-06T14:04:18.227Z,99689.91
2023-03-06T14:06:44.971Z,99688.78
2023-03-06T14:09:11.729Z,99690.00
2023-03-06T14:11:38.742Z,99684.22
2023-03-06T14:14:05.500Z,99676.25
2023-03-06T14:16:40.586Z,99673.34
2023-03-06T14:19:14.343Z,99678.19
2023-03-06T14:21:41.152Z,99677.50
2023-03-06T14:24:07.899Z,99676.47
2023-03-06T14:26:34.730Z,99679.63
2023-03-06T14:29:01.472Z,99677.94
2023-03-06T14:31:28.296Z,99677.25
2023-03-06T14:33:55.407Z,99674.25
2023-03-06T14:36:22.175Z,99672.13
2023-03-06T14:38:48.990Z,99673.81
2023-03-06T14:41:15.733Z,99679.06
2023-03-06T14:43:42.510Z,99671.28
2023-03-06T14:46:09.327Z,99668.94
2023-03-06T14:48:38.300Z,99667.78
2023-03-06T14:51:05.068Z,99667.84
2023-03-06T14:53:31.948Z,99671.84
2023-03-06T14:56:00.031Z,99674.78
2023-03-06T14:58:26.857Z,99671.69
2023-03-06T15:00:54.576Z,99674.88
2023-03-06T15:03:21.388Z,99668.09
2023-03-06T15:05:48.170Z,99649.19
2023-03-06T15:08:14.928Z,99652.59
2023-03-06T15:10:43.219Z,99660.50
2023-03-06T15:13:10.020Z,99666.50
2023-03-06T15:15:36.806Z,99662.06
2023-03-06T15:18:03.714Z,99667.78
2023-03-06T15:20:30.477Z,99664.56
2023-03-06T15:22:57.220Z,99664.81
2023-03-06T15:25:24.023Z,99665.00
2023-03-06T15:27:50.763Z,99655.31
2023-03-06T15:30:17.574Z,99659.16
2023-03-06T15:32:44.531Z,99660.91
2023-03-06T15:35:11.318Z,99662.16
2023-03-06T15:37:38.072Z,99666.81
2023-03-06T15:40:06.409Z,99669.28
2023-03-06T15:42:33.157Z,99670.13
2023-03-06T15:45:00.091Z,99673.41
2023-03-06T15:47:26.879Z,99669.38
2023-03-06T15:49:53.812Z,99672.13
2023-03-06T15:52:20.612Z,99677.06
2023-03-06T15:54:47.379Z,99677.88
2023-03-06T15:57:14.189Z,99673.72
2023-03-06T15:59:41.285Z,99667.34
2023-03-06T16:02:08.026Z,99667.38
2023-03-06T16:04:34.774Z,99665.00
2023-03-06T16:07:01.646Z,99661.75
2023-03-06T16:09:28.430Z,99659.44
2023-03-06T16:11:55.169Z,99666.66
2023-03-06T16:14:23.506Z,99658.75
2023-03-06T16:16:50.396Z,99657.50
2023-03-06T16:19:25.905Z,99653.00
2023-03-06T16:21:53.064Z,99659.91
2023-03-06T16:24:19.826Z,99659.53
2023-03-06T16:26:46.570Z,99654.97
2023-03-06T16:29:13.326Z,99658.59
2023-03-06T16:31:40.050Z,99663.44
2023-03-06T16:34:06.848Z,99654.59
2023-03-06T16:36:33.611Z,99663.13
2023-03-06T16:39:00.353Z,99663.59
2023-03-06T16:41:27.462Z,99662.22
2023-03-06T16:43:54.230Z,99663.06
2023-03-06T16:46:21.007Z,99666.03
2023-03-06T16:48:47.813Z,99655.84
2023-03-06T16:51:14.604Z,99664.44
2023-03-06T16:53:41.337Z,99666.47
2023-03-06T16:56:08.064Z,99660.03
2023-03-06T16:58:34.874Z,99662.16
2023-03-06T17:01:01.963Z,99663.94
2023-03-06T17:03:28.745Z,99663.00
2023-03-06T17:05:55.512Z,99670.06
2023-03-06T17:08:22.283Z,99666.66
2023-03-06T17:10:50.258Z,99669.81
2023-03-06T17:13:17.129Z,99666.72
2023-03-06T17:15:43.877Z,99673.66
2023-03-06T17:18:10.608Z,99674.28
2023-03-06T17:20:37.376Z,99674.44
2023-03-06T17:23:04.133Z,99678.41
2023-03-06T17:25:31.373Z,99684.41
2023-03-06T17:27:58.133Z,99677.44
2023-03-06T17:30:24.881Z,99686.97
2023-03-06T17:32:51.658Z,99684.66
2023-03-06T17:35:18.489Z,99684.00
2023-03-06T17:37:45.346Z,99688.56
2023-03-06T17:40:12.145Z,99693.47
2023-03-06T17:42:38.948Z,99688.03
2023-03-06T17:45:06.201Z,99692.00
2023-03-06T17:47:32.935Z,99694.84
2023-03-06T17:49:59.739Z,99690.56
2023-03-06T17:52:26.537Z,99696.69
2023-03-06T17:54:53.444Z,99699.28
2023-03-06T17:57:20.437Z,99699.47
2023-03-06T17:59:48.606Z,99688.31
2023-03-06T18:02:15.351Z,99687.06
2023-03-06T18:04:42.249Z,99688.44
2023-03-06T18:07:10.143Z,99697.28
2023-03-06T18:09:36.950Z,99698.25
2023-03-06T18:12:03.733Z,99684.78
2023-03-06T18:14:30.549Z,99684.25
2023-03-06T18:16:57.316Z,99695.91
2023-03-06T18:19:24.257Z,99686.22
2023-03-06T18:21:51.013Z,99680.78
2023-03-06T18:24:17.762Z,99683.66
2023-03-06T18:26:44.541Z,99684.22
2023-03-06T18:29:11.296Z,99676.50
2023-03-06T18:31:38.113Z,99679.34
2023-03-06T18:34:04.943Z,99671.13
2023-03-06T18:36:31.701Z,99678.97
2023-03-06T18:38:58.574Z,99666.31
2023-03-06T18:41:25.352Z,99669.63
2023-03-06T18:43:52.114Z,99667.59
2023-03-06T18:46:18.849Z,99671.44
2023-03-06T18:48:45.601Z,99670.13
2023-03-06T18:51:12.368Z,99668.84
2023-03-06T18:53:39.968Z,99665.59
2023-03-06T18:56:06.800Z,99670.66
2023-03-06T18:58:33.546Z,99666.97
2023-03-06T19:01:02.027Z,99670.94
2023-03-06T19:03:28.781Z,99670.13
2023-03-06T19:05:55.726Z,99662.84
2023-03-06T19:08:22.555Z,99671.09
2023-03-06T19:10:49.963Z,99660.25
2023-03-06T19:13:16.721Z,99668.16
2023-03-06T19:15:44.171Z,99662.94
2023-03-06T19:18:10.931Z,99654.44
2023-03-06T19:20:37.725Z,99655.13
2023-03-06T19:23:04.496Z,99665.09
2023-03-06T19:25:31.305Z,99659.88
2023-03-06T19:27:58.081Z,99651.97
2023-03-06T19:30:25.654Z,99654.34
2023-03-06T19:32:52.661Z,99652.47
2023-03-06T19:35:19.433Z,99649.13
2023-03-06T19:37:46.208Z,99651.63
2023-03-06T19:40:12.973Z,99648.69
2023-03-06T19:42:39.734Z,99645.19
2023-03-06T19:45:06.516Z,99642.34
2023-03-06T19:47:33.270Z,99640.34
2023-03-06T19:50:00.008Z,99646.53
2023-03-06T19:52:26.812Z,99638.84
2023-03-06T19:54:53.550Z,99634.66
2023-03-06T19:57:20.277Z,99632.00
2023-03-06T19:59:47.024Z,99631.81
2023-03-06T20:02:15.951Z,99630.47
2023-03-06T20:04:42.765Z,99625.72
2023-03-06T20:07:09.525Z,99626.94
2023-03-06T20:09:36.520Z,99629.63
2023-03-06T20:12:03.243Z,99631.41
2023-03-06T20:14:30.004Z,99624.25
2023-03-06T20:16:56.923Z,99623.41
2023-03-06T20:19:23.667Z,99608.53
2023-03-06T20:21:50.504Z,99609.56
2023-03-06T20:24:17.826Z,99604.28
2023-03-06T20:26:44.563Z,99600.06
2023-03-06T20:29:11.352Z,99609.00
2023-03-06T20:31:38.127Z,99596.84
2023-03-06T20:34:04.929Z,99604.72
2023-03-06T20:36:31.788Z,99599.84
2023-03-06T20:38:58.547Z,99605.06
2023-03-06T20:41:25.413Z,99605.31
2023-03-06T20:43:52.262Z,99597.63
2023-03-06T20:46:19.155Z,99593.88
2023-03-06T20:48:46.036Z,99595.69
2023-03-06T20:51:12.833Z,99590.19
2023-03-06T20:53:39.602Z,99589.16
2023-03-06T20:56:06.500Z,99593.16
2023-03-06T20:58:33.277Z,99586.03
2023-03-06T21:01:02.343Z,99582.09
2023-03-06T21:03:29.563Z,99580.97
2023-03-06T21:05:56.335Z,99574.09
2023-03-06T21:08:23.213Z,99565.59
2023-03-06T21:10:49.980Z,99571.91
2023-03-06T21:13:16.873Z,99559.38
2023-03-06T21:15:43.901Z,99558.03
2023-03-06T21:18:10.629Z,99560.13
2023-03-06T21:20:37.376Z,99556.34
2023-03-06T21:23:04.229Z,99559.78
2023-03-06T21:25:30.994Z,99555.81
2023-03-06T21:27:59.024Z,99554.72
2023-03-06T21:30:25.881Z,99548.78
2023-03-06T21:32:52.651Z,99547.81
2023-03-06T21:35:19.487Z,99544.97
2023-03-06T21:37:46.309Z,99548.09
2023-03-06T21:40:13.949Z,99532.94
2023-03-06T21:42:40.702Z,99534.84
2023-03-06T21:45:10.481Z,99525.25
2023-03-06T21:47:40.866Z,99522.09
2023-03-06T21:50:07.617Z,99517.78
2023-03-06T21:52:34.410Z,99519.31
2023-03-06T21:55:01.147Z,99508.22
2023-03-06T21:57:27.971Z,99509.16
2023-03-06T21:59:54.766Z,99504.56
2023-03-06T22:02:21.499Z,99500.97
2023-03-06T22:04:49.908Z,99503.06
2023-03-06T22:07:16.674Z,99499.44
2023-03-06T22:09:43.422Z,99491.00
2023-03-06T22:12:10.164Z,99495.47
2023-03-06T22:14:36.989Z,99486.03
2023-03-06T22:17:03.735Z,99489.28
2023-03-06T22:19:30.557Z,99479.13
2023-03-06T22:21:57.344Z,99484.09
2023-03-06T22:24:24.071Z,99469.25
2023-03-06T22:26:50.830Z,99469.41
2023-03-06T22:29:17.602Z,99459.56
2023-03-06T22:31:44.361Z,99457.00
2023-03-06T22:34:11.149Z,99459.00
2023-03-06T22:36:37.895Z,99461.09
2023-03-06T22:39:04.622Z,99453.66
2023-03-06T22:41:31.399Z,99450.44
2023-03-06T22:43:58.237Z,99435.38
2023-03-06T22:46:25.094Z,99434.41
2023-03-06T22:48:51.948Z,99429.19
2023-03-06T22:51:18.722Z,99427.97
2023-03-06T22:53:45.461Z,99416.31
2023-03-06T22:56:12.292Z,99429.06
2023-03-06T22:58:39.069Z,99422.63
2023-03-06T23:01:06.015Z,99414.13
2023-03-06T23:03:32.825Z,99404.81
2023-03-06T23:05:59.564Z,99406.41
2023-03-06T23:08:26.376Z,99406.84
2023-03-06T23:10:53.115Z,99405.47
2023-03-06T23:13:19.878Z,99396.34
2023-03-06T23:15:46.617Z,99393.91
2023-03-06T23:18:13.382Z,99390.47
2023-03-06T23:20:40.136Z,99391.16
2023-03-06T23:23:06.895Z,99383.53
2023-03-06T23:25:34.629Z,99380.03
2023-03-06T23:28:01.721Z,99381.81
2023-03-06T23:30:28.466Z,99375.91
2023-03-06T23:32:55.230Z,99382.53
2023-03-06T23:35:22.037Z,99371.56
2023-03-06T23:37:48.804Z,99371.56
2023-03-06T23:40:16.113Z,99362.25
2023-03-06T23:42:42.895Z,99359.88
2023-03-06T23:45:09.638Z,99355.84
2023-03-06T23:47:36.381Z,99353.94
2023-03-06T23:50:03.251Z,99358.09
2023-03-06T23:52:30.014Z,99346.53
2023-03-06T23:54:56.747Z,99337.66
2023-03-06T23:57:23.578Z,99332.41
2023-03-06T23:59:50.330Z,99335.28
